Bryce Canyon Airport
KBCE : now visible

Airfield :











YOU CAN JOIN US ON...

 
LOGIN :

Register | Disclaimer

   EN    FR    IT 

 









Legend :    VFR   Marginal VFR   IFR   Intensive IFR   Very Intensive IFR
Visi :
Ceiling :
>= 8 km
>= 3000ft
5 to 8 km
1000 to 3000 ft
1500m to 5 km
500 to 1000 ft
800 to 1500m
200 to 500 ft
< 800m
< 200 ft
Symbols :   Thunderstorms  Fog  Heavy snow  Heavy precipitations  Wind > 20 kt






- Airport Elevation : 7590 ft


KBCE - Bryce Canyon

CURRENT METAR :
  • 291253Z AUTO 27012KT 10SM CLR M12/M14 A3005 RMK AO2 SLP182 I1000 T11221144

EXPIRED METARs :
  • 291153Z AUTO VRB03KT 10SM CLR M12/M14 A3005 RMK AO2 SLP182 I6001 T11221144 11078 21122 56007
  • 291053Z AUTO 28010KT 10SM CLR M11/M13 A3005 RMK AO2 SLP172 I1000 T11111133

TAF KBCE
Valid from the 29 at 13:00 until the 30 at 12:00 UTC


291323Z 2913/3012 27011KT P6SM FEW060 BKN200
FM291800 35012KT P6SM BKN050 BKN100
FM300300 32010KT P6SM SCT050 BKN100



MET'MAP, your aeronautical weather chart ! - Copyright ORBIFLY December 2007 - Disclaimer

ORBIFLY MET'MAP TEAM :

Programming & Development : Alexandra Zaïnal
Concept & original design : Baudouin d'Aumeries
Assistance for programming : Marc-Olivier Méhu
Technical & hardware support : Manuel Goepfert

Contact : metmap@orbifly.com




SOURCES & CREDITS :

   NOAA       Earth
Advisory